createdAt,value
2022-10-30T00:00:49.912Z,5.43
2022-10-30T00:03:17.761Z,5.30
2022-10-30T00:05:46.945Z,4.78
2022-10-30T00:08:15.764Z,4.65
2022-10-30T00:10:43.170Z,5.15
2022-10-30T00:13:11.057Z,4.18
2022-10-30T00:15:38.524Z,4.55
2022-10-30T00:18:06.053Z,5.28
2022-10-30T00:20:33.010Z,4.28
2022-10-30T00:23:00.429Z,5.47
2022-10-30T00:25:27.694Z,4.55
2022-10-30T00:27:54.632Z,4.32
2022-10-30T00:30:21.584Z,5.13
2022-10-30T00:32:48.528Z,5.80
2022-10-30T00:35:15.717Z,4.43
2022-10-30T00:37:42.623Z,5.85
2022-10-30T00:40:19.008Z,4.47
2022-10-30T00:42:46.171Z,4.32
2022-10-30T00:45:15.505Z,4.78
2022-10-30T00:47:51.643Z,4.20
2022-10-30T00:52:59.475Z,4.38
2022-10-30T00:55:32.118Z,3.95
2022-10-30T00:58:01.414Z,4.47
2022-10-30T01:00:30.883Z,3.30
2022-10-30T01:02:58.897Z,2.42
2022-10-30T01:05:28.829Z,2.72
2022-10-30T01:07:56.051Z,2.30
2022-10-30T01:10:23.770Z,2.90
2022-10-30T01:12:54.623Z,3.28
2022-10-30T01:15:31.614Z,3.45
2022-10-30T01:18:21.892Z,3.67
2022-10-30T01:21:13.258Z,4.13
2022-10-30T01:23:49.058Z,4.55
2022-10-30T01:26:38.021Z,3.63
2022-10-30T01:29:07.851Z,3.83
2022-10-30T01:31:52.360Z,3.35
2022-10-30T01:34:32.540Z,2.85
2022-10-30T01:37:07.738Z,2.80
2022-10-30T01:39:38.697Z,3.08
2022-10-30T01:42:45.490Z,2.95
2022-10-30T01:45:35.471Z,3.22
2022-10-30T01:48:24.075Z,3.20
2022-10-30T01:51:14.250Z,3.00
2022-10-30T01:54:00.283Z,3.65
2022-10-30T01:56:52.057Z,3.42
2022-10-30T01:59:31.029Z,3.60
2022-10-30T02:01:58.922Z,3.17
2022-10-30T02:04:26.669Z,3.13
2022-10-30T02:06:54.072Z,4.38
2022-10-30T02:09:20.970Z,4.10
2022-10-30T02:11:49.701Z,2.80
2022-10-30T02:14:23.463Z,3.13
2022-10-30T02:16:53.125Z,3.05
2022-10-30T02:19:20.168Z,2.90
2022-10-30T02:21:47.245Z,2.88
2022-10-30T02:24:14.371Z,2.88
2022-10-30T02:26:41.416Z,3.15
2022-10-30T02:29:08.365Z,3.30
2022-10-30T02:31:36.693Z,2.95
2022-10-30T02:34:03.843Z,2.90
2022-10-30T02:36:30.839Z,3.22
2022-10-30T02:38:57.914Z,3.55
2022-10-30T02:41:25.011Z,3.15
2022-10-30T02:43:53.556Z,3.10
2022-10-30T02:46:21.261Z,3.08
2022-10-30T02:48:48.223Z,3.15
2022-10-30T02:51:15.481Z,2.95
2022-10-30T02:53:42.479Z,3.53
2022-10-30T02:56:12.716Z,3.40
2022-10-30T02:58:40.439Z,3.63
2022-10-30T03:01:11.835Z,3.92
2022-10-30T03:03:39.168Z,4.20
2022-10-30T03:06:08.640Z,4.35
2022-10-30T03:08:36.049Z,4.82
2022-10-30T03:11:05.757Z,4.43
2022-10-30T03:13:34.438Z,4.97
2022-10-30T03:16:06.703Z,5.70
2022-10-30T03:18:34.110Z,3.13
2022-10-30T03:21:03.125Z,3.00
2022-10-30T03:23:30.442Z,2.83
2022-10-30T03:25:58.605Z,2.60
2022-10-30T03:28:27.752Z,3.13
2022-10-30T03:31:06.904Z,4.03
2022-10-30T03:33:34.638Z,3.50
2022-10-30T03:36:02.429Z,3.60
2022-10-30T03:38:29.428Z,4.38
2022-10-30T03:40:56.421Z,4.00
2022-10-30T03:43:23.401Z,4.40
2022-10-30T03:45:52.754Z,4.03
2022-10-30T03:48:24.356Z,4.85
2022-10-30T03:50:58.789Z,4.35
2022-10-30T03:53:26.612Z,4.07
2022-10-30T03:55:57.244Z,4.40
2022-10-30T03:58:24.292Z,3.80
2022-10-30T04:00:51.338Z,3.40
2022-10-30T04:03:18.480Z,2.88
2022-10-30T04:05:45.688Z,3.10
2022-10-30T04:08:14.638Z,3.40
2022-10-30T04:10:46.201Z,3.75
2022-10-30T04:13:15.972Z,3.88
2022-10-30T04:15:43.018Z,3.60
2022-10-30T04:18:12.206Z,3.30
2022-10-30T04:20:39.399Z,3.40
2022-10-30T04:23:08.438Z,2.72
2022-10-30T04:25:36.170Z,3.08
2022-10-30T04:28:04.171Z,3.60
2022-10-30T04:30:35.336Z,4.13
2022-10-30T04:33:04.193Z,3.70
2022-10-30T04:35:39.294Z,3.50
2022-10-30T04:38:11.258Z,4.15
2022-10-30T04:40:40.627Z,3.95
2022-10-30T04:43:08.507Z,3.38
2022-10-30T04:45:35.888Z,3.40
2022-10-30T04:48:08.613Z,3.53
2022-10-30T04:50:35.519Z,3.65
2022-10-30T04:53:12.665Z,3.60
2022-10-30T04:55:39.624Z,3.75
2022-10-30T04:58:08.278Z,5.43
2022-10-30T05:00:36.505Z,3.05
2022-10-30T05:03:03.846Z,3.05
2022-10-30T05:05:32.643Z,4.13
2022-10-30T05:08:00.114Z,4.90
2022-10-30T05:10:27.521Z,4.80
2022-10-30T05:12:54.576Z,3.65
2022-10-30T05:15:21.934Z,3.78
2022-10-30T05:17:52.803Z,4.07
2022-10-30T05:20:20.000Z,4.18
2022-10-30T05:22:47.227Z,3.88
2022-10-30T05:25:15.989Z,4.22
2022-10-30T05:27:43.054Z,4.40
2022-10-30T05:30:10.352Z,3.45
2022-10-30T05:32:37.270Z,6.32
2022-10-30T05:35:04.548Z,7.32
2022-10-30T05:37:31.610Z,7.13
2022-10-30T05:39:58.614Z,6.32
2022-10-30T05:42:25.587Z,5.55
2022-10-30T05:45:00.851Z,4.47
2022-10-30T05:47:28.960Z,4.13
2022-10-30T05:49:55.885Z,4.05
2022-10-30T05:52:22.851Z,5.70
2022-10-30T05:54:49.764Z,4.38
2022-10-30T05:57:16.726Z,4.95
2022-10-30T05:59:43.660Z,4.25
2022-10-30T06:02:11.804Z,5.38
2022-10-30T06:04:38.749Z,4.53
2022-10-30T06:07:05.795Z,7.13
2022-10-30T06:09:32.719Z,6.85
2022-10-30T06:11:59.732Z,7.35
2022-10-30T06:14:26.659Z,9.43
2022-10-30T06:16:53.625Z,11.57
2022-10-30T06:19:20.748Z,11.50
2022-10-30T06:21:48.157Z,14.05
2022-10-30T06:24:15.321Z,14.85
2022-10-30T06:26:42.405Z,13.13
2022-10-30T06:29:09.322Z,12.57
2022-10-30T06:31:36.400Z,11.25
2022-10-30T06:34:03.417Z,12.90
2022-10-30T06:36:30.402Z,11.82
2022-10-30T06:38:57.387Z,9.40
2022-10-30T06:41:27.533Z,12.25
2022-10-30T06:43:56.251Z,6.38
2022-10-30T06:46:25.775Z,6.10
2022-10-30T06:48:55.988Z,6.18
2022-10-30T06:51:23.171Z,5.18
2022-10-30T06:53:50.092Z,5.35
2022-10-30T06:56:17.023Z,7.05
2022-10-30T06:58:44.020Z,8.20
2022-10-30T07:01:11.594Z,6.22
2022-10-30T07:03:38.575Z,6.57
2022-10-30T07:06:05.828Z,6.70
2022-10-30T07:08:32.798Z,6.38
2022-10-30T07:10:59.901Z,6.72
2022-10-30T07:13:27.046Z,6.63
2022-10-30T07:15:54.159Z,7.07
2022-10-30T07:18:21.276Z,6.25
2022-10-30T07:20:48.226Z,5.45
2022-10-30T07:23:15.349Z,5.43
2022-10-30T07:25:42.285Z,5.07
2022-10-30T07:28:09.249Z,6.20
2022-10-30T07:30:36.240Z,5.22
2022-10-30T07:33:05.756Z,5.55
2022-10-30T07:35:35.386Z,6.00
2022-10-30T07:38:07.362Z,5.90
2022-10-30T07:40:35.037Z,8.70
2022-10-30T07:43:03.806Z,6.30
2022-10-30T07:45:31.892Z,7.07
2022-10-30T07:47:59.104Z,7.82
2022-10-30T07:50:26.366Z,6.75
2022-10-30T07:52:53.323Z,7.20
2022-10-30T07:55:20.268Z,7.65
2022-10-30T07:57:47.262Z,6.90
2022-10-30T08:00:15.715Z,7.25
2022-10-30T08:02:43.102Z,7.40
2022-10-30T08:05:10.912Z,7.70
2022-10-30T08:07:39.442Z,5.90
2022-10-30T08:10:07.955Z,6.20
2022-10-30T08:12:35.459Z,7.55
2022-10-30T08:15:02.418Z,5.53
2022-10-30T08:17:29.417Z,5.85
2022-10-30T08:19:57.346Z,5.32
2022-10-30T08:22:24.978Z,10.45
2022-10-30T08:24:52.023Z,9.95
2022-10-30T08:27:18.946Z,6.45
2022-10-30T08:29:45.905Z,5.97
2022-10-30T08:32:12.873Z,6.40
2022-10-30T08:34:40.244Z,6.97
2022-10-30T08:37:08.149Z,6.50
2022-10-30T08:39:35.353Z,5.47
2022-10-30T08:42:02.381Z,5.90
2022-10-30T08:44:29.316Z,5.50
2022-10-30T08:46:56.258Z,5.90
2022-10-30T08:49:23.245Z,5.38
2022-10-30T08:51:50.264Z,6.43
2022-10-30T08:54:17.184Z,5.75
2022-10-30T08:56:44.173Z,6.30
2022-10-30T08:59:11.250Z,5.90
2022-10-30T09:01:38.297Z,5.78
2022-10-30T09:04:05.435Z,6.03
2022-10-30T09:06:32.415Z,5.57
2022-10-30T09:08:59.654Z,5.35
2022-10-30T09:11:26.698Z,5.40
2022-10-30T09:13:53.796Z,5.88
2022-10-30T09:16:20.819Z,6.00
2022-10-30T09:18:47.736Z,6.40
2022-10-30T09:21:14.836Z,7.00
2022-10-30T09:23:44.011Z,5.43
2022-10-30T09:26:14.431Z,5.45
2022-10-30T09:28:45.387Z,5.75
2022-10-30T09:31:12.313Z,5.88
2022-10-30T09:33:39.243Z,6.00
2022-10-30T09:36:06.909Z,5.50
2022-10-30T09:38:34.127Z,5.93
2022-10-30T09:41:14.084Z,5.03
2022-10-30T09:43:56.241Z,5.18
2022-10-30T09:46:48.236Z,5.57
2022-10-30T09:49:29.610Z,5.10
2022-10-30T09:52:39.868Z,5.30
2022-10-30T09:55:20.111Z,5.88
2022-10-30T09:57:57.969Z,4.97
2022-10-30T10:00:38.157Z,5.50
2022-10-30T10:03:32.966Z,5.15
2022-10-30T10:06:02.844Z,4.88
2022-10-30T10:08:42.846Z,5.55
2022-10-30T10:11:37.401Z,5.28
2022-10-30T10:14:29.662Z,5.43
2022-10-30T10:16:59.427Z,4.50
2022-10-30T10:19:35.963Z,5.07
2022-10-30T10:22:06.189Z,4.28
2022-10-30T10:24:36.890Z,4.53
2022-10-30T10:27:23.303Z,4.28
2022-10-30T10:29:58.970Z,4.50
2022-10-30T10:32:29.307Z,4.97
2022-10-30T10:35:23.825Z,5.32
2022-10-30T10:38:09.166Z,3.75
2022-10-30T10:41:14.330Z,3.95
2022-10-30T10:43:53.341Z,3.72
2022-10-30T10:47:07.710Z,3.55
2022-10-30T10:50:03.103Z,3.50
2022-10-30T10:52:47.105Z,3.53
2022-10-30T10:55:19.310Z,4.05
2022-10-30T10:57:48.232Z,3.70
2022-10-30T11:00:21.043Z,4.38
2022-10-30T11:03:07.486Z,4.10
2022-10-30T11:05:55.816Z,3.92
2022-10-30T11:08:35.033Z,3.85
2022-10-30T11:11:04.675Z,3.70
2022-10-30T11:13:35.933Z,3.17
2022-10-30T11:16:27.839Z,3.40
2022-10-30T11:19:01.081Z,3.00
2022-10-30T11:21:30.823Z,3.17
2022-10-30T11:23:57.815Z,3.05
2022-10-30T11:26:26.397Z,4.57
2022-10-30T11:29:15.391Z,3.40
2022-10-30T11:31:44.403Z,2.70
2022-10-30T11:34:23.662Z,3.80
2022-10-30T11:36:55.376Z,3.40
2022-10-30T11:39:30.839Z,3.38
2022-10-30T11:42:13.093Z,3.10
2022-10-30T11:44:50.218Z,3.17
2022-10-30T11:47:24.382Z,3.53
2022-10-30T11:49:58.175Z,2.97
2022-10-30T11:52:27.299Z,3.03
2022-10-30T11:55:02.925Z,3.25
2022-10-30T11:57:37.874Z,2.90
2022-10-30T12:00:08.269Z,2.80
2022-10-30T12:02:47.197Z,3.80
2022-10-30T12:05:35.247Z,3.65
2022-10-30T12:08:08.110Z,2.85
2022-10-30T12:11:05.244Z,3.67
2022-10-30T12:13:39.748Z,2.88
2022-10-30T12:16:16.422Z,2.40
2022-10-30T12:18:58.463Z,2.80
2022-10-30T12:21:27.791Z,3.25
2022-10-30T12:24:06.783Z,3.25
2022-10-30T12:26:36.073Z,2.70
2022-10-30T12:29:08.402Z,3.25
2022-10-30T12:31:46.646Z,2.55
2022-10-30T12:34:22.635Z,3.22
2022-10-30T12:36:56.577Z,2.95
2022-10-30T12:39:46.673Z,2.85
2022-10-30T12:42:17.024Z,3.30
2022-10-30T12:44:50.785Z,3.42
2022-10-30T12:47:36.501Z,3.22
2022-10-30T12:50:17.749Z,2.80
2022-10-30T12:53:06.197Z,2.72
2022-10-30T12:55:45.412Z,3.47
2022-10-30T12:58:18.261Z,2.67
2022-10-30T13:01:10.082Z,2.92
2022-10-30T13:03:50.637Z,3.67
2022-10-30T13:06:23.737Z,2.90
2022-10-30T13:09:00.185Z,3.35
2022-10-30T13:11:39.429Z,3.60
2022-10-30T13:14:15.592Z,4.30
2022-10-30T13:16:42.534Z,4.55
2022-10-30T13:19:13.043Z,3.42
2022-10-30T13:22:03.892Z,3.58
2022-10-30T13:25:03.998Z,3.20
2022-10-30T13:27:51.543Z,3.22
2022-10-30T13:30:23.565Z,3.90
2022-10-30T13:33:12.350Z,4.35
2022-10-30T13:36:00.373Z,3.63
2022-10-30T13:38:51.886Z,4.07
2022-10-30T13:41:33.904Z,3.63
2022-10-30T13:44:15.555Z,4.60
2022-10-30T13:47:07.194Z,3.25
2022-10-30T13:49:55.889Z,3.70
2022-10-30T13:52:23.647Z,3.92
2022-10-30T13:55:03.389Z,3.92
2022-10-30T13:57:35.067Z,4.07
2022-10-30T14:00:22.547Z,3.28
2022-10-30T14:03:04.645Z,9.90
2022-10-30T14:05:46.164Z,4.00
2022-10-30T14:08:15.933Z,3.60
2022-10-30T14:10:47.434Z,3.65
2022-10-30T14:13:36.185Z,3.63
2022-10-30T14:16:07.926Z,3.45
2022-10-30T14:19:01.923Z,3.35
2022-10-30T14:21:34.809Z,3.75
2022-10-30T14:24:23.900Z,4.43
2022-10-30T14:26:53.125Z,4.10
2022-10-30T14:29:35.812Z,3.70
2022-10-30T14:32:14.737Z,4.00
2022-10-30T14:34:45.930Z,3.58
2022-10-30T14:37:13.697Z,3.42
2022-10-30T14:39:44.159Z,3.00
2022-10-30T14:42:50.725Z,4.18
2022-10-30T14:45:29.340Z,3.45
2022-10-30T14:48:47.200Z,4.15
2022-10-30T14:51:44.159Z,4.15
2022-10-30T14:54:18.498Z,3.25
2022-10-30T14:56:48.350Z,4.05
2022-10-30T14:59:15.249Z,4.35
2022-10-30T15:02:04.175Z,3.92
2022-10-30T15:04:49.392Z,4.20
2022-10-30T15:07:51.640Z,3.97
2022-10-30T15:10:31.548Z,4.13
2022-10-30T15:13:02.480Z,3.05
2022-10-30T15:15:30.702Z,4.40
2022-10-30T15:18:03.051Z,3.33
2022-10-30T15:20:33.380Z,3.83
2022-10-30T15:23:16.157Z,3.80
2022-10-30T15:25:50.503Z,4.05
2022-10-30T15:28:20.872Z,3.42
2022-10-30T15:31:04.162Z,3.58
2022-10-30T15:33:32.633Z,5.68
2022-10-30T15:36:00.056Z,6.03
2022-10-30T15:38:27.593Z,3.90
2022-10-30T15:41:02.907Z,4.50
2022-10-30T15:43:33.441Z,8.95
2022-10-30T15:46:00.556Z,12.68
2022-10-30T15:48:31.734Z,9.68
2022-10-30T15:51:02.090Z,4.68
2022-10-30T15:53:37.249Z,7.70
2022-10-30T15:56:05.594Z,4.18
2022-10-30T15:58:36.345Z,4.47
2022-10-30T16:01:03.626Z,4.78
2022-10-30T16:03:33.978Z,10.40
2022-10-30T16:06:16.849Z,5.78
2022-10-30T16:08:46.171Z,4.47
2022-10-30T16:11:14.448Z,4.95
2022-10-30T16:13:42.469Z,4.65
2022-10-30T16:16:18.596Z,5.53
2022-10-30T16:18:45.672Z,5.40
2022-10-30T16:21:17.319Z,4.38
2022-10-30T16:23:56.101Z,3.90
2022-10-30T16:26:29.992Z,6.60
2022-10-30T16:28:57.830Z,5.07
2022-10-30T16:31:28.786Z,5.80
2022-10-30T16:33:58.988Z,3.80
2022-10-30T16:36:26.263Z,4.55
2022-10-30T16:38:54.556Z,3.58
2022-10-30T16:41:26.693Z,3.53
2022-10-30T16:44:26.558Z,3.97
2022-10-30T16:47:04.605Z,3.63
2022-10-30T16:49:34.859Z,3.78
2022-10-30T16:52:07.467Z,4.50
2022-10-30T16:54:40.821Z,4.00
2022-10-30T16:57:23.152Z,3.75
2022-10-30T16:59:52.337Z,3.47
2022-10-30T17:02:32.751Z,3.35
2022-10-30T17:05:10.036Z,4.35
2022-10-30T17:07:38.107Z,3.83
2022-10-30T17:10:33.870Z,3.70
2022-10-30T17:13:32.550Z,5.97
2022-10-30T17:16:24.800Z,4.25
2022-10-30T17:18:54.386Z,3.95
2022-10-30T17:21:29.637Z,5.47
2022-10-30T17:23:59.520Z,5.15
2022-10-30T17:26:28.968Z,4.75
2022-10-30T17:28:56.195Z,4.75
2022-10-30T17:31:36.980Z,4.07
2022-10-30T17:34:19.815Z,5.38
2022-10-30T17:36:48.284Z,4.50
2022-10-30T17:39:16.086Z,4.60
2022-10-30T17:41:43.727Z,5.20
2022-10-30T17:44:19.660Z,5.57
2022-10-30T17:46:46.763Z,4.60
2022-10-30T17:49:34.094Z,4.65
2022-10-30T17:52:02.496Z,5.28
2022-10-30T17:54:29.747Z,5.57
2022-10-30T17:56:58.418Z,5.57
2022-10-30T17:59:25.443Z,5.68
2022-10-30T18:01:52.497Z,4.95
2022-10-30T18:04:21.457Z,5.22
2022-10-30T18:06:49.473Z,5.05
2022-10-30T18:09:16.857Z,4.30
2022-10-30T18:11:43.869Z,4.30
2022-10-30T18:14:12.436Z,4.95
2022-10-30T18:16:39.821Z,4.93
2022-10-30T18:19:10.283Z,4.53
2022-10-30T18:21:37.648Z,4.07
2022-10-30T18:24:11.100Z,5.07
2022-10-30T18:26:40.803Z,4.55
2022-10-30T18:29:09.134Z,4.35
2022-10-30T18:31:36.547Z,4.22
2022-10-30T18:34:04.020Z,5.20
2022-10-30T18:36:31.208Z,4.50
2022-10-30T18:38:58.571Z,4.15
2022-10-30T18:41:32.548Z,3.95
2022-10-30T18:44:00.042Z,3.20
2022-10-30T18:46:28.339Z,4.82
2022-10-30T18:48:55.553Z,4.10
2022-10-30T18:51:25.458Z,4.20
2022-10-30T18:53:53.588Z,4.70
2022-10-30T18:56:29.851Z,5.40
2022-10-30T18:59:02.036Z,4.32
2022-10-30T19:01:33.116Z,3.00
2022-10-30T19:04:04.614Z,3.55
2022-10-30T19:06:34.551Z,2.92
2022-10-30T19:09:02.218Z,2.80
2022-10-30T19:11:31.832Z,3.42
2022-10-30T19:13:59.431Z,4.63
2022-10-30T19:16:26.545Z,4.70
2022-10-30T19:18:53.648Z,5.13
2022-10-30T19:21:25.919Z,6.10
2022-10-30T19:23:53.965Z,5.63
2022-10-30T19:26:21.030Z,4.60
2022-10-30T19:28:48.078Z,4.80
2022-10-30T19:31:18.073Z,5.43
2022-10-30T19:33:46.109Z,5.28
2022-10-30T19:36:33.949Z,4.22
2022-10-30T19:39:07.444Z,3.40
2022-10-30T19:41:35.987Z,3.80
2022-10-30T19:44:02.935Z,4.30
2022-10-30T19:46:29.917Z,4.45
2022-10-30T19:48:58.689Z,3.83
2022-10-30T19:51:27.733Z,5.00
2022-10-30T19:53:54.767Z,4.05
2022-10-30T19:56:22.058Z,4.47
2022-10-30T19:58:49.311Z,3.97
2022-10-30T20:01:16.892Z,5.25
2022-10-30T20:03:43.997Z,3.88
2022-10-30T20:06:14.673Z,3.83
2022-10-30T20:08:42.381Z,3.97
2022-10-30T20:11:09.336Z,3.92
2022-10-30T20:13:37.338Z,4.68
2022-10-30T20:16:05.892Z,4.57
2022-10-30T20:18:35.347Z,4.35
2022-10-30T20:21:05.498Z,3.90
2022-10-30T20:23:32.415Z,4.43
2022-10-30T20:26:05.803Z,3.80
2022-10-30T20:28:39.213Z,3.38
2022-10-30T20:31:07.689Z,2.95
2022-10-30T20:33:35.132Z,2.80
2022-10-30T20:36:02.593Z,2.92
2022-10-30T20:38:33.044Z,3.40
2022-10-30T20:41:02.374Z,2.72
2022-10-30T20:43:32.252Z,3.38
2022-10-30T20:46:00.140Z,2.78
2022-10-30T20:48:28.262Z,3.13
2022-10-30T20:50:57.001Z,2.97
2022-10-30T20:53:24.087Z,3.00
2022-10-30T20:55:51.175Z,2.58
2022-10-30T20:58:18.893Z,2.40
2022-10-30T21:00:46.275Z,3.10
2022-10-30T21:03:14.535Z,2.63
2022-10-30T21:05:44.711Z,2.95
2022-10-30T21:08:15.604Z,3.65
2022-10-30T21:10:42.760Z,9.27
2022-10-30T21:13:11.154Z,2.88
2022-10-30T21:15:43.435Z,4.05
2022-10-30T21:18:13.028Z,3.78
2022-10-30T21:20:41.337Z,4.28
2022-10-30T21:23:08.633Z,3.80
2022-10-30T21:25:36.126Z,3.47
2022-10-30T21:28:03.537Z,3.38
2022-10-30T21:30:31.057Z,3.90
2022-10-30T21:32:59.184Z,3.70
2022-10-30T21:35:27.607Z,3.80
2022-10-30T21:37:54.585Z,4.30
2022-10-30T21:40:21.735Z,6.15
2022-10-30T21:42:48.964Z,5.85
2022-10-30T21:45:16.135Z,5.25
2022-10-30T21:47:43.134Z,5.72
2022-10-30T21:50:12.721Z,4.97
2022-10-30T21:52:40.816Z,5.40
2022-10-30T21:55:08.419Z,4.22
2022-10-30T21:57:36.091Z,4.15
2022-10-30T22:00:05.716Z,3.50
2022-10-30T22:02:34.688Z,2.90
2022-10-30T22:05:01.669Z,2.00
2022-10-30T22:07:28.670Z,1.90
2022-10-30T22:09:55.693Z,2.15
2022-10-30T22:12:22.614Z,2.53
2022-10-30T22:14:50.568Z,2.83
2022-10-30T22:17:17.543Z,2.45
2022-10-30T22:19:44.446Z,3.30
2022-10-30T22:22:11.430Z,3.17
2022-10-30T22:24:38.595Z,2.97
2022-10-30T22:27:05.631Z,6.43
2022-10-30T22:29:32.558Z,6.90
2022-10-30T22:31:59.491Z,7.63
2022-10-30T22:34:26.415Z,6.70
2022-10-30T22:36:53.450Z,6.30
2022-10-30T22:39:20.586Z,6.47
2022-10-30T22:41:47.635Z,6.65
2022-10-30T22:44:17.497Z,6.50
2022-10-30T22:46:44.788Z,4.65
2022-10-30T22:49:12.067Z,4.88
2022-10-30T22:51:39.865Z,4.40
2022-10-30T22:54:10.916Z,4.88
2022-10-30T22:56:38.630Z,5.68
2022-10-30T22:59:08.360Z,6.00
2022-10-30T23:01:36.791Z,5.65
2022-10-30T23:04:05.351Z,5.43
2022-10-30T23:06:34.095Z,6.15
2022-10-30T23:09:03.247Z,4.18
2022-10-30T23:11:30.404Z,4.50
2022-10-30T23:13:57.847Z,5.28
2022-10-30T23:16:26.271Z,5.15
2022-10-30T23:18:57.440Z,5.32
2022-10-30T23:21:26.531Z,5.00
2022-10-30T23:23:54.243Z,4.85
2022-10-30T23:26:27.292Z,4.63
2022-10-30T23:28:55.638Z,4.20
2022-10-30T23:31:24.311Z,5.07
2022-10-30T23:33:52.904Z,6.32
2022-10-30T23:36:21.004Z,6.90
2022-10-30T23:38:59.629Z,7.38
2022-10-30T23:41:30.783Z,6.28
2022-10-30T23:44:02.266Z,6.57
2022-10-30T23:46:29.354Z,5.32
2022-10-30T23:48:56.414Z,6.70
2022-10-30T23:51:24.030Z,6.05
2022-10-30T23:53:51.554Z,5.32
2022-10-30T23:56:19.236Z,5.78
2022-10-30T23:58:48.431Z,5.43
